Thunder radar more information blitzortung!


Radar de pluja more information rain snow radar


Visita la nostra xarxa de llocs de meteo:

Template documentation
and downloads

And another site



No particular awareness of the weather is required.    There are no Weather-warnings

Pagina Historial Weather Underground text

Diari Resum January 28, 2018 Unitats:  Tant    Imperial   Mètric
« Previous Dia
SegĂźent Dia »
Diari Setmana Mensual Anual Personalitzada
  Maxima: Minima: Media:
Temperatura: TemperatureC °F /  -17.8 °C 5.5 °F /  -14.7 °C 11.6 °F /  -11.3 °C
Punt de rosada: DewpointC °F /  -17.8 °C 0.8 °F /  -17.3 °C 4.4 °F /  -15.3 °C
Humitat: Humidity % 51 % 61 %
Wind Speed: WindSpeedKMH mph /  0 km/h - 3.9 mph /  6.3 km/h
RĂ fegues de vent: WindSpeedGustKMH mph /  0 km/h - -
Vent:- - NE
Pression baro: PressurehPa in /  0 hPa 1033.7 in /  35001.1 hPa -
Precipitacions: 0.0 in /  0 mm    
Historical Graphs
 
 
Dades de taula per January 28, 2018
Temps Temperatura Punt de rosada Pression baro Vent Wind Speed RĂ fegues de vent Humitat Rainfall Rate (Hourly)
TemperatureC °F /  -17.8 °C DewpointC °F /  -17.8 °C PressurehPa in /  0 hPa Calm     Humidity % HourlyPrecipMM in /  0 mm
00:00 7.7 °F /  -13.5 °C 2.8 °F /  -16.2 °C 1033.7 in /  35001.1 hPa NE 1.9 mph /  3.1 km/h 1.9 mph /  3.1 km/h 71 % 0.0 in /  0 mm
00:05 7.8 °F /  -13.4 °C 3.1 °F /  -16.1 °C 1033.7 in /  35001.1 hPa NE 3.7 mph /  6 km/h 3.7 mph /  6 km/h 72 % 0.0 in /  0 mm
00:10 7.8 °F /  -13.4 °C 3.1 °F /  -16.1 °C 1033.7 in /  35001.1 hPa Calm     72 % 0.0 in /  0 mm
00:15 7.9 °F /  -13.4 °C 2.9 °F /  -16.2 °C 1033.7 in /  35001.1 hPa NE 1.9 mph /  3.1 km/h 1.9 mph /  3.1 km/h 71 % 0.0 in /  0 mm
00:20 7.9 °F /  -13.4 °C 2.9 °F /  -16.2 °C 1033.7 in /  35001.1 hPa NE 2.6 mph /  4.2 km/h 2.6 mph /  4.2 km/h 71 % 0.0 in /  0 mm
00:25 8.0 °F /  -13.3 °C 3.1 °F /  -16.1 °C 1033.7 in /  35001.1 hPa Calm     71 % 0.0 in /  0 mm
00:30 6.6 °F /  -14.1 °C 1.5 °F /  -16.9 °C 1034.8 in /  35038.3 hPa Calm   1.6 mph /  2.6 km/h 70 % 0.0 in /  0 mm
00:40 6.5 °F /  -14.2 °C 1.4 °F /  -17 °C 1034.8 in /  35038.3 hPa Calm   1.6 mph /  2.6 km/h 70 % 0.0 in /  0 mm
00:50 6.5 °F /  -14.2 °C 1.4 °F /  -17 °C 1034.8 in /  35038.3 hPa NE 1.6 mph /  2.6 km/h 1.6 mph /  2.6 km/h 70 % 0.0 in /  0 mm
01:00 6.2 °F /  -14.3 °C 1.1 °F /  -17.2 °C 1034.8 in /  35038.3 hPa Calm   1.6 mph /  2.6 km/h 70 % 0.0 in /  0 mm
01:10 6.1 °F /  -14.4 °C 1.1 °F /  -17.2 °C 1034.8 in /  35038.3 hPa NE 3.2 mph /  5.1 km/h 4.8 mph /  7.7 km/h 70 % 0.0 in /  0 mm
01:20 6.1 °F /  -14.4 °C 1.2 °F /  -17.1 °C 1034.8 in /  35038.3 hPa NE 1.6 mph /  2.6 km/h 3.2 mph /  5.1 km/h 71 % 0.0 in /  0 mm
01:30 6.0 °F /  -14.4 °C 1.1 °F /  -17.2 °C 1034.8 in /  35038.3 hPa NE 1.6 mph /  2.6 km/h 1.6 mph /  2.6 km/h 71 % 0.0 in /  0 mm
01:40 5.9 °F /  -14.5 °C 1.1 °F /  -17.2 °C 1035.8 in /  35072.2 hPa NE 1.6 mph /  2.6 km/h 4.8 mph /  7.7 km/h 71 % 0.0 in /  0 mm
01:50 5.8 °F /  -14.6 °C 0.9 °F /  -17.3 °C 1034.8 in /  35038.3 hPa Calm   1.6 mph /  2.6 km/h 71 % 0.0 in /  0 mm
02:00 5.7 °F /  -14.6 °C 0.8 °F /  -17.3 °C 1034.8 in /  35038.3 hPa Calm     71 % 0.0 in /  0 mm
02:10 5.6 °F /  -14.7 °C 0.9 °F /  -17.3 °C 1035.8 in /  35072.2 hPa Calm     72 % 0.0 in /  0 mm
02:20 5.6 °F /  -14.7 °C 0.9 °F /  -17.3 °C 1035.8 in /  35072.2 hPa Calm   1.6 mph /  2.6 km/h 72 % 0.0 in /  0 mm
02:30 5.5 °F /  -14.7 °C 0.8 °F /  -17.3 °C 1035.8 in /  35072.2 hPa Calm   1.6 mph /  2.6 km/h 72 % 0.0 in /  0 mm
02:40 5.6 °F /  -14.7 °C 1.1 °F /  -17.2 °C 1036.8 in /  35106 hPa Calm   3.2 mph /  5.1 km/h 73 % 0.0 in /  0 mm
02:50 5.9 °F /  -14.5 °C 1.4 °F /  -17 °C 1036.8 in /  35106 hPa Calm   3.2 mph /  5.1 km/h 73 % 0.0 in /  0 mm
03:00 6.0 °F /  -14.4 °C 1.5 °F /  -16.9 °C 1036.8 in /  35106 hPa NE 3.2 mph /  5.1 km/h 3.2 mph /  5.1 km/h 73 % 0.0 in /  0 mm
03:10 6.1 °F /  -14.4 °C 1.6 °F /  -16.9 °C 1036.8 in /  35106 hPa NE 3.2 mph /  5.1 km/h 4.8 mph /  7.7 km/h 73 % 0.0 in /  0 mm
03:20 6.5 °F /  -14.2 °C 2.0 °F /  -16.7 °C 1037.8 in /  35139.9 hPa NE 1.6 mph /  2.6 km/h 4.8 mph /  7.7 km/h 73 % 0.0 in /  0 mm
03:30 7.2 °F /  -13.8 °C 2.7 °F /  -16.3 °C 1037.8 in /  35139.9 hPa Calm   3.2 mph /  5.1 km/h 73 % 0.0 in /  0 mm
03:40 7.7 °F /  -13.5 °C 2.9 °F /  -16.2 °C 1037.8 in /  35139.9 hPa NE 3.2 mph /  5.1 km/h 3.2 mph /  5.1 km/h 72 % 0.0 in /  0 mm
03:50 8.3 °F /  -13.2 °C 3.6 °F /  -15.8 °C 1037.8 in /  35139.9 hPa NE 1.6 mph /  2.6 km/h 3.2 mph /  5.1 km/h 72 % 0.0 in /  0 mm
04:00 8.2 °F /  -13.2 °C 3.3 °F /  -15.9 °C 1037.8 in /  35139.9 hPa NE 1.6 mph /  2.6 km/h 3.2 mph /  5.1 km/h 71 % 0.0 in /  0 mm
04:10 8.6 °F /  -13 °C 3.4 °F /  -15.9 °C 1037.8 in /  35139.9 hPa NE 1.6 mph /  2.6 km/h 3.2 mph /  5.1 km/h 70 % 0.0 in /  0 mm
04:20 9.4 °F /  -12.6 °C 4.2 °F /  -15.4 °C 1036.8 in /  35106 hPa NE 1.6 mph /  2.6 km/h 3.2 mph /  5.1 km/h 70 % 0.0 in /  0 mm
04:30 10.4 °F /  -12 °C 4.9 °F /  -15.1 °C 1036.8 in /  35106 hPa Calm     69 % 0.0 in /  0 mm
04:40 10.6 °F /  -11.9 °C 4.9 °F /  -15.1 °C 1037.8 in /  35139.9 hPa NE 1.6 mph /  2.6 km/h 1.6 mph /  2.6 km/h 68 % 0.0 in /  0 mm
10:44 10.6 °F /  -11.9 °C 4.7 °F /  -15.2 °C 1037.8 in /  35139.9 hPa NE 1.9 mph /  3.1 km/h 5.8 mph /  9.3 km/h 67 % 0.0 in /  0 mm
10:49 10.3 °F /  -12.1 °C 4.0 °F /  -15.6 °C 1037.8 in /  35139.9 hPa NE 7.4 mph /  11.9 km/h 7.4 mph /  11.9 km/h 65 % 0.0 in /  0 mm
10:54 10.3 °F /  -12.1 °C 3.8 °F /  -15.7 °C 1037.8 in /  35139.9 hPa NE 5.6 mph /  9 km/h 5.8 mph /  9.3 km/h 64 % 0.0 in /  0 mm
10:59 10.6 °F /  -11.9 °C 4.3 °F /  -15.4 °C 1037.8 in /  35139.9 hPa NE 3.7 mph /  6 km/h 4.2 mph /  6.8 km/h 65 % 0.0 in /  0 mm
11:04 10.7 °F /  -11.8 °C 4.2 °F /  -15.4 °C 1038.8 in /  35173.8 hPa NE 2.3 mph /  3.7 km/h 4.2 mph /  6.8 km/h 64 % 0.0 in /  0 mm
11:09 10.9 °F /  -11.7 °C 4.3 °F /  -15.4 °C 1038.8 in /  35173.8 hPa NE 5.6 mph /  9 km/h 5.6 mph /  9 km/h 64 % 0.0 in /  0 mm
11:14 11.3 °F /  -11.5 °C 4.7 °F /  -15.2 °C 1038.8 in /  35173.8 hPa NE 3.7 mph /  6 km/h 3.7 mph /  6 km/h 64 % 0.0 in /  0 mm
11:19 11.7 °F /  -11.3 °C 5.1 °F /  -14.9 °C 1038.8 in /  35173.8 hPa NE 1.9 mph /  3.1 km/h 1.9 mph /  3.1 km/h 64 % 0.0 in /  0 mm
11:24 12.0 °F /  -11.1 °C 5.4 °F /  -14.8 °C 1038.8 in /  35173.8 hPa NE 3.7 mph /  6 km/h 3.7 mph /  6 km/h 64 % 0.0 in /  0 mm
11:29 11.9 °F /  -11.2 °C 5.1 °F /  -14.9 °C 1038.8 in /  35173.8 hPa NE 5.6 mph /  9 km/h 5.6 mph /  9 km/h 63 % 0.0 in /  0 mm
11:34 12.1 °F /  -11.1 °C 5.3 °F /  -14.8 °C 1038.8 in /  35173.8 hPa NE 5.6 mph /  9 km/h 5.6 mph /  9 km/h 63 % 0.0 in /  0 mm
11:39 12.3 °F /  -10.9 °C 5.4 °F /  -14.8 °C 1038.8 in /  35173.8 hPa NE 3.7 mph /  6 km/h 3.7 mph /  6 km/h 63 % 0.0 in /  0 mm
11:44 12.6 °F /  -10.8 °C 5.7 °F /  -14.6 °C 1038.8 in /  35173.8 hPa NE 3.7 mph /  6 km/h 3.7 mph /  6 km/h 63 % 0.0 in /  0 mm
11:49 12.8 °F /  -10.7 °C 5.9 °F /  -14.5 °C 1038.8 in /  35173.8 hPa NE 3.7 mph /  6 km/h 3.7 mph /  6 km/h 63 % 0.0 in /  0 mm
11:54 13.2 °F /  -10.4 °C 5.8 °F /  -14.6 °C 1038.8 in /  35173.8 hPa NE 3.7 mph /  6 km/h 3.7 mph /  6 km/h 61 % 0.0 in /  0 mm
11:59 13.3 °F /  -10.4 °C 5.9 °F /  -14.5 °C 1038.8 in /  35173.8 hPa NE 4.7 mph /  7.6 km/h 4.7 mph /  7.6 km/h 61 % 0.0 in /  0 mm
12:04 13.3 °F /  -10.4 °C 5.9 °F /  -14.5 °C 1037.8 in /  35139.9 hPa NE 4.2 mph /  6.8 km/h 4.2 mph /  6.8 km/h 61 % 0.0 in /  0 mm
12:09 13.5 °F /  -10.3 °C 6.1 °F /  -14.4 °C 1037.8 in /  35139.9 hPa NE 3.2 mph /  5.1 km/h   61 % 0.0 in /  0 mm
12:14 13.5 °F /  -10.3 °C 5.9 °F /  -14.5 °C 1037.8 in /  35139.9 hPa NE 2.3 mph /  3.7 km/h 2.6 mph /  4.2 km/h 60 % 0.0 in /  0 mm
12:19 13.9 °F /  -10.1 °C 6.3 °F /  -14.3 °C 1037.8 in /  35139.9 hPa NE 3.7 mph /  6 km/h 3.7 mph /  6 km/h 60 % 0.0 in /  0 mm
12:24 14.1 °F /  -9.9 °C 6.7 °F /  -14.1 °C 1037.8 in /  35139.9 hPa NE 3.7 mph /  6 km/h 3.7 mph /  6 km/h 61 % 0.0 in /  0 mm
12:29 14.3 °F /  -9.8 °C 6.6 °F /  -14.1 °C 1037.8 in /  35139.9 hPa NE 1.9 mph /  3.1 km/h   60 % 0.0 in /  0 mm
12:34 14.6 °F /  -9.7 °C 6.9 °F /  -13.9 °C 1037.8 in /  35139.9 hPa NE 1.9 mph /  3.1 km/h 1.9 mph /  3.1 km/h 60 % 0.0 in /  0 mm
12:39 14.6 °F /  -9.7 °C 6.9 °F /  -13.9 °C 1037.8 in /  35139.9 hPa NE 3.7 mph /  6 km/h 3.7 mph /  6 km/h 60 % 0.0 in /  0 mm
12:44 14.6 °F /  -9.7 °C 6.4 °F /  -14.2 °C 1037.8 in /  35139.9 hPa NE 3.7 mph /  6 km/h 3.7 mph /  6 km/h 58 % 0.0 in /  0 mm
12:49 15.0 °F /  -9.4 °C 6.6 °F /  -14.1 °C 1037.8 in /  35139.9 hPa NE 3.7 mph /  6 km/h 3.7 mph /  6 km/h 57 % 0.0 in /  0 mm
12:54 15.4 °F /  -9.2 °C 7.4 °F /  -13.7 °C 1037.8 in /  35139.9 hPa Calm     59 % 0.0 in /  0 mm
12:59 15.3 °F /  -9.3 °C 7.1 °F /  -13.8 °C 1037.8 in /  35139.9 hPa NE 1.9 mph /  3.1 km/h   58 % 0.0 in /  0 mm
13:04 15.5 °F /  -9.2 °C 7.3 °F /  -13.7 °C 1037.8 in /  35139.9 hPa NE 1.9 mph /  3.1 km/h   58 % 0.0 in /  0 mm
13:09 15.8 °F /  -9 °C 7.6 °F /  -13.6 °C 1037.8 in /  35139.9 hPa NE 4.2 mph /  6.8 km/h 4.2 mph /  6.8 km/h 58 % 0.0 in /  0 mm
13:14 15.7 °F /  -9.1 °C 7.2 °F /  -13.8 °C 1037.8 in /  35139.9 hPa NE 3.7 mph /  6 km/h 4.2 mph /  6.8 km/h 57 % 0.0 in /  0 mm
13:19 15.6 °F /  -9.1 °C 6.6 °F /  -14.1 °C 1037.8 in /  35139.9 hPa NE 3.7 mph /  6 km/h 3.7 mph /  6 km/h 55 % 0.0 in /  0 mm
13:24 16.1 °F /  -8.8 °C 7.3 °F /  -13.7 °C 1037.8 in /  35139.9 hPa NE 2.3 mph /  3.7 km/h   56 % 0.0 in /  0 mm
13:29 15.7 °F /  -9.1 °C 6.7 °F /  -14.1 °C 1037.8 in /  35139.9 hPa NE 5.0 mph /  8 km/h 5.0 mph /  8 km/h 55 % 0.0 in /  0 mm
13:34 15.7 °F /  -9.1 °C 6.7 °F /  -14.1 °C 1037.8 in /  35139.9 hPa NE 9.3 mph /  15 km/h 9.3 mph /  15 km/h 55 % 0.0 in /  0 mm
13:39 15.8 °F /  -9 °C 6.5 °F /  -14.2 °C 1037.8 in /  35139.9 hPa NE 7.4 mph /  11.9 km/h 7.4 mph /  11.9 km/h 54 % 0.0 in /  0 mm
13:44 16.1 °F /  -8.8 °C 7.1 °F /  -13.8 °C 1037.8 in /  35139.9 hPa NE 1.9 mph /  3.1 km/h 2.3 mph /  3.7 km/h 55 % 0.0 in /  0 mm
13:49 16.2 °F /  -8.8 °C 6.9 °F /  -13.9 °C 1037.8 in /  35139.9 hPa NE 8.7 mph /  14 km/h 8.7 mph /  14 km/h 54 % 0.0 in /  0 mm
13:54 15.7 °F /  -9.1 °C 6.4 °F /  -14.2 °C 1037.8 in /  35139.9 hPa NE 9.3 mph /  15 km/h 9.3 mph /  15 km/h 54 % 0.0 in /  0 mm
13:59 15.5 °F /  -9.2 °C 5.9 °F /  -14.5 °C 1037.8 in /  35139.9 hPa NE 5.6 mph /  9 km/h 5.6 mph /  9 km/h 53 % 0.0 in /  0 mm
14:04 16.0 °F /  -8.9 °C 6.7 °F /  -14.1 °C 1037.8 in /  35139.9 hPa NE 3.9 mph /  6.3 km/h   54 % 0.0 in /  0 mm
14:09 15.7 °F /  -9.1 °C 6.4 °F /  -14.2 °C 1037.8 in /  35139.9 hPa NE 6.4 mph /  10.3 km/h 6.4 mph /  10.3 km/h 54 % 0.0 in /  0 mm
14:14 15.6 °F /  -9.1 °C 6.3 °F /  -14.3 °C 1037.8 in /  35139.9 hPa NE 13.0 mph /  20.9 km/h 13.0 mph /  20.9 km/h 54 % 0.0 in /  0 mm
14:19 15.7 °F /  -9.1 °C 6.4 °F /  -14.2 °C 1036.8 in /  35106 hPa NE 9.3 mph /  15 km/h 9.3 mph /  15 km/h 54 % 0.0 in /  0 mm
14:24 15.8 °F /  -9 °C 6.2 °F /  -14.3 °C 1036.8 in /  35106 hPa NE 9.3 mph /  15 km/h 9.3 mph /  15 km/h 53 % 0.0 in /  0 mm
14:29 15.8 °F /  -9 °C 6.2 °F /  -14.3 °C 1036.8 in /  35106 hPa NE 7.6 mph /  12.2 km/h 7.6 mph /  12.2 km/h 53 % 0.0 in /  0 mm
14:34 15.8 °F /  -9 °C 6.2 °F /  -14.3 °C 1037.8 in /  35139.9 hPa NE 7.4 mph /  11.9 km/h 7.4 mph /  11.9 km/h 53 % 0.0 in /  0 mm
14:39 15.9 °F /  -8.9 °C 6.3 °F /  -14.3 °C 1037.8 in /  35139.9 hPa NE 7.4 mph /  11.9 km/h 7.4 mph /  11.9 km/h 53 % 0.0 in /  0 mm
14:44 15.9 °F /  -8.9 °C 6.3 °F /  -14.3 °C 1037.8 in /  35139.9 hPa NE 13.0 mph /  20.9 km/h 13.0 mph /  20.9 km/h 53 % 0.0 in /  0 mm
14:49 16.0 °F /  -8.9 °C 6.4 °F /  -14.2 °C 1037.8 in /  35139.9 hPa NE 9.5 mph /  15.3 km/h 9.5 mph /  15.3 km/h 53 % 0.0 in /  0 mm
14:54 15.9 °F /  -8.9 °C 6.1 °F /  -14.4 °C 1037.8 in /  35139.9 hPa NE 7.4 mph /  11.9 km/h 7.4 mph /  11.9 km/h 52 % 0.0 in /  0 mm
14:59 16.0 °F /  -8.9 °C 6.2 °F /  -14.3 °C 1037.8 in /  35139.9 hPa NE 11.1 mph /  17.9 km/h 11.1 mph /  17.9 km/h 52 % 0.0 in /  0 mm
15:04 16.1 °F /  -8.8 °C 6.2 °F /  -14.3 °C 1036.8 in /  35106 hPa NE 7.4 mph /  11.9 km/h 7.4 mph /  11.9 km/h 52 % 0.0 in /  0 mm
15:09 16.1 °F /  -8.8 °C 6.2 °F /  -14.3 °C 1036.8 in /  35106 hPa NE 7.4 mph /  11.9 km/h 7.4 mph /  11.9 km/h 52 % 0.0 in /  0 mm
15:14 16.0 °F /  -8.9 °C 6.2 °F /  -14.3 °C 1036.8 in /  35106 hPa NE 10.3 mph /  16.6 km/h 10.3 mph /  16.6 km/h 52 % 0.0 in /  0 mm
15:19 15.9 °F /  -8.9 °C 5.8 °F /  -14.6 °C 1037.8 in /  35139.9 hPa NE 9.3 mph /  15 km/h 9.3 mph /  15 km/h 51 % 0.0 in /  0 mm
15:24 15.9 °F /  -8.9 °C 6.1 °F /  -14.4 °C 1037.8 in /  35139.9 hPa NE 9.3 mph /  15 km/h 9.3 mph /  15 km/h 52 % 0.0 in /  0 mm
15:29 15.8 °F /  -9 °C 5.7 °F /  -14.6 °C 1037.8 in /  35139.9 hPa NE 13.0 mph /  20.9 km/h 13.0 mph /  20.9 km/h 51 % 0.0 in /  0 mm
15:34 15.9 °F /  -8.9 °C 6.1 °F /  -14.4 °C 1036.8 in /  35106 hPa NE 9.5 mph /  15.3 km/h 9.5 mph /  15.3 km/h 52 % 0.0 in /  0 mm
15:39 15.8 °F /  -9 °C 5.7 °F /  -14.6 °C 1036.8 in /  35106 hPa NE 9.7 mph /  15.6 km/h 9.7 mph /  15.6 km/h 51 % 0.0 in /  0 mm
15:44 15.8 °F /  -9 °C 5.7 °F /  -14.6 °C 1036.8 in /  35106 hPa NE 7.4 mph /  11.9 km/h 7.4 mph /  11.9 km/h 51 % 0.0 in /  0 mm
15:49 15.8 °F /  -9 °C 5.7 °F /  -14.6 °C 1037.8 in /  35139.9 hPa NE 11.1 mph /  17.9 km/h 11.1 mph /  17.9 km/h 51 % 0.0 in /  0 mm
15:54 15.8 °F /  -9 °C 5.7 °F /  -14.6 °C 1037.8 in /  35139.9 hPa NE 14.8 mph /  23.8 km/h 14.8 mph /  23.8 km/h 51 % 0.0 in /  0 mm
15:59 15.7 °F /  -9.1 °C 5.6 °F /  -14.7 °C 1037.8 in /  35139.9 hPa NE 9.3 mph /  15 km/h 9.3 mph /  15 km/h 51 % 0.0 in /  0 mm
16:04 15.6 °F /  -9.1 °C 5.5 °F /  -14.7 °C 1037.8 in /  35139.9 hPa NE 16.7 mph /  26.9 km/h 16.7 mph /  26.9 km/h 51 % 0.0 in /  0 mm
16:09 15.5 °F /  -9.2 °C 5.4 °F /  -14.8 °C 1037.8 in /  35139.9 hPa NE 13.0 mph /  20.9 km/h 13.0 mph /  20.9 km/h 51 % 0.0 in /  0 mm
16:14 15.6 °F /  -9.1 °C 5.5 °F /  -14.7 °C 1037.8 in /  35139.9 hPa NE 13.0 mph /  20.9 km/h 13.0 mph /  20.9 km/h 51 % 0.0 in /  0 mm
16:19 15.4 °F /  -9.2 °C 5.3 °F /  -14.8 °C 1037.8 in /  35139.9 hPa NE 11.1 mph /  17.9 km/h 11.1 mph /  17.9 km/h 51 % 0.0 in /  0 mm
16:24 15.3 °F /  -9.3 °C 5.2 °F /  -14.9 °C 1037.8 in /  35139.9 hPa NE 7.4 mph /  11.9 km/h 7.4 mph /  11.9 km/h 51 % 0.0 in /  0 mm
16:29 15.3 °F /  -9.3 °C 5.2 °F /  -14.9 °C 1037.8 in /  35139.9 hPa NE 9.3 mph /  15 km/h 9.3 mph /  15 km/h 51 % 0.0 in /  0 mm
16:34 15.2 °F /  -9.3 °C 5.1 °F /  -14.9 °C 1036.8 in /  35106 hPa NE 11.1 mph /  17.9 km/h 11.1 mph /  17.9 km/h 51 % 0.0 in /  0 mm
16:35 15.2 °F /  -9.3 °C 5.1 °F /  -14.9 °C 1036.8 in /  35106 hPa NE 11.1 mph /  17.9 km/h 11.1 mph /  17.9 km/h 51 % 0.0 in /  0 mm
16:40 15.3 °F /  -9.3 °C 5.2 °F /  -14.9 °C 1036.8 in /  35106 hPa NE 9.3 mph /  15 km/h 9.3 mph /  15 km/h 51 % 0.0 in /  0 mm
16:45 15.2 °F /  -9.3 °C 5.1 °F /  -14.9 °C 1036.8 in /  35106 hPa NE 5.6 mph /  9 km/h 5.6 mph /  9 km/h 51 % 0.0 in /  0 mm
16:50 15.4 °F /  -9.2 °C 5.6 °F /  -14.7 °C 1037.8 in /  35139.9 hPa NE 5.6 mph /  9 km/h 5.6 mph /  9 km/h 52 % 0.0 in /  0 mm
16:55 15.4 °F /  -9.2 °C 5.6 °F /  -14.7 °C 1037.8 in /  35139.9 hPa NE 3.7 mph /  6 km/h 3.7 mph /  6 km/h 52 % 0.0 in /  0 mm
17:00 15.1 °F /  -9.4 °C 5.1 °F /  -14.9 °C 1037.8 in /  35139.9 hPa NE 5.6 mph /  9 km/h 5.6 mph /  9 km/h 51 % 0.0 in /  0 mm
17:05 15.3 °F /  -9.3 °C 5.5 °F /  -14.7 °C 1037.8 in /  35139.9 hPa NE 3.7 mph /  6 km/h   52 % 0.0 in /  0 mm
17:10 15.4 °F /  -9.2 °C 5.6 °F /  -14.7 °C 1037.8 in /  35139.9 hPa NE 3.9 mph /  6.3 km/h 3.9 mph /  6.3 km/h 52 % 0.0 in /  0 mm
17:15 15.3 °F /  -9.3 °C 5.5 °F /  -14.7 °C 1037.8 in /  35139.9 hPa NE 3.7 mph /  6 km/h 3.7 mph /  6 km/h 52 % 0.0 in /  0 mm
17:20 15.5 °F /  -9.2 °C 5.7 °F /  -14.6 °C 1037.8 in /  35139.9 hPa NE 3.7 mph /  6 km/h 3.7 mph /  6 km/h 52 % 0.0 in /  0 mm
17:25 15.5 °F /  -9.2 °C 5.9 °F /  -14.5 °C 1037.8 in /  35139.9 hPa NE 1.9 mph /  3.1 km/h   53 % 0.0 in /  0 mm
17:30 15.2 °F /  -9.3 °C 5.7 °F /  -14.6 °C 1037.8 in /  35139.9 hPa NE 1.9 mph /  3.1 km/h 1.9 mph /  3.1 km/h 53 % 0.0 in /  0 mm
17:35 15.1 °F /  -9.4 °C 5.6 °F /  -14.7 °C 1037.8 in /  35139.9 hPa NE 1.9 mph /  3.1 km/h   53 % 0.0 in /  0 mm
17:40 14.9 °F /  -9.5 °C 5.4 °F /  -14.8 °C 1037.8 in /  35139.9 hPa Calm     53 % 0.0 in /  0 mm
17:45 14.8 °F /  -9.6 °C 5.3 °F /  -14.8 °C 1037.8 in /  35139.9 hPa Calm     53 % 0.0 in /  0 mm
17:50 14.6 °F /  -9.7 °C 5.1 °F /  -14.9 °C 1037.8 in /  35139.9 hPa Calm     53 % 0.0 in /  0 mm
17:55 14.3 °F /  -9.8 °C 4.8 °F /  -15.1 °C 1037.8 in /  35139.9 hPa Calm     53 % 0.0 in /  0 mm
18:00 14.1 °F /  -9.9 °C 4.7 °F /  -15.2 °C 1037.8 in /  35139.9 hPa NE 1.9 mph /  3.1 km/h 2.3 mph /  3.7 km/h 53 % 0.0 in /  0 mm
18:05 14.0 °F /  -10 °C 4.6 °F /  -15.2 °C 1037.8 in /  35139.9 hPa NE 2.6 mph /  4.2 km/h   53 % 0.0 in /  0 mm
18:10 13.7 °F /  -10.2 °C 4.6 °F /  -15.2 °C 1037.8 in /  35139.9 hPa NE 2.6 mph /  4.2 km/h 2.6 mph /  4.2 km/h 54 % 0.0 in /  0 mm
18:15 13.5 °F /  -10.3 °C 4.4 °F /  -15.3 °C 1037.8 in /  35139.9 hPa NE 1.9 mph /  3.1 km/h   54 % 0.0 in /  0 mm
18:20 13.3 °F /  -10.4 °C 4.2 °F /  -15.4 °C 1037.8 in /  35139.9 hPa Calm     54 % 0.0 in /  0 mm
18:25 13.1 °F /  -10.5 °C 4.0 °F /  -15.6 °C 1037.8 in /  35139.9 hPa Calm   3.2 mph /  5.1 km/h 54 % 0.0 in /  0 mm
18:30 12.9 °F /  -10.6 °C 4.1 °F /  -15.5 °C 1037.8 in /  35139.9 hPa Calm     55 % 0.0 in /  0 mm
18:35 12.8 °F /  -10.7 °C 4.0 °F /  -15.6 °C 1037.8 in /  35139.9 hPa Calm   3.2 mph /  5.1 km/h 55 % 0.0 in /  0 mm
18:40 12.9 °F /  -10.6 °C 4.1 °F /  -15.5 °C 1037.8 in /  35139.9 hPa NE 3.7 mph /  6 km/h 3.7 mph /  6 km/h 55 % 0.0 in /  0 mm
18:45 12.8 °F /  -10.7 °C 4.0 °F /  -15.6 °C 1037.8 in /  35139.9 hPa NE 1.4 mph /  2.3 km/h   55 % 0.0 in /  0 mm
18:50 12.5 °F /  -10.8 °C 3.9 °F /  -15.6 °C 1037.8 in /  35139.9 hPa NE 1.6 mph /  2.6 km/h 1.6 mph /  2.6 km/h 56 % 0.0 in /  0 mm
18:55 12.3 °F /  -10.9 °C 3.8 °F /  -15.7 °C 1037.8 in /  35139.9 hPa Calm   1.6 mph /  2.6 km/h 56 % 0.0 in /  0 mm
19:00 12.1 °F /  -11.1 °C 3.6 °F /  -15.8 °C 1037.8 in /  35139.9 hPa Calm     56 % 0.0 in /  0 mm
19:05 12.0 °F /  -11.1 °C 3.7 °F /  -15.7 °C 1038.8 in /  35173.8 hPa Calm   1.6 mph /  2.6 km/h 57 % 0.0 in /  0 mm
19:10 11.7 °F /  -11.3 °C 3.4 °F /  -15.9 °C 1038.8 in /  35173.8 hPa NE 1.6 mph /  2.6 km/h 3.2 mph /  5.1 km/h 57 % 0.0 in /  0 mm
19:15 11.5 °F /  -11.4 °C 3.5 °F /  -15.8 °C 1038.8 in /  35173.8 hPa Calm   3.2 mph /  5.1 km/h 58 % 0.0 in /  0 mm
19:20 11.4 °F /  -11.4 °C 3.4 °F /  -15.9 °C 1038.8 in /  35173.8 hPa Calm     58 % 0.0 in /  0 mm
19:25 11.4 °F /  -11.4 °C 3.4 °F /  -15.9 °C 1038.8 in /  35173.8 hPa NE 3.2 mph /  5.1 km/h 4.8 mph /  7.7 km/h 58 % 0.0 in /  0 mm
19:30 11.3 °F /  -11.5 °C 3.6 °F /  -15.8 °C 1038.8 in /  35173.8 hPa NE 1.6 mph /  2.6 km/h 3.2 mph /  5.1 km/h 59 % 0.0 in /  0 mm
19:35 11.2 °F /  -11.6 °C 3.5 °F /  -15.8 °C 1038.8 in /  35173.8 hPa NE 3.2 mph /  5.1 km/h 4.8 mph /  7.7 km/h 59 % 0.0 in /  0 mm
19:40 11.1 °F /  -11.6 °C 3.6 °F /  -15.8 °C 1038.8 in /  35173.8 hPa NE 1.6 mph /  2.6 km/h 3.2 mph /  5.1 km/h 60 % 0.0 in /  0 mm
19:45 11.0 °F /  -11.7 °C 3.8 °F /  -15.7 °C 1038.8 in /  35173.8 hPa NE 1.6 mph /  2.6 km/h 3.2 mph /  5.1 km/h 61 % 0.0 in /  0 mm
19:50 10.9 °F /  -11.7 °C 3.9 °F /  -15.6 °C 1038.8 in /  35173.8 hPa NE 1.6 mph /  2.6 km/h 3.2 mph /  5.1 km/h 62 % 0.0 in /  0 mm
19:55 10.8 °F /  -11.8 °C 3.8 °F /  -15.7 °C 1038.8 in /  35173.8 hPa NE 1.6 mph /  2.6 km/h 4.8 mph /  7.7 km/h 62 % 0.0 in /  0 mm
20:00 10.8 °F /  -11.8 °C 4.1 °F /  -15.5 °C 1038.8 in /  35173.8 hPa NE 3.2 mph /  5.1 km/h 4.8 mph /  7.7 km/h 63 % 0.0 in /  0 mm
20:05 10.8 °F /  -11.8 °C 4.3 °F /  -15.4 °C 1038.8 in /  35173.8 hPa NE 1.6 mph /  2.6 km/h 3.2 mph /  5.1 km/h 64 % 0.0 in /  0 mm
20:10 10.7 °F /  -11.8 °C 4.2 °F /  -15.4 °C 1038.8 in /  35173.8 hPa NE 1.6 mph /  2.6 km/h 3.2 mph /  5.1 km/h 64 % 0.0 in /  0 mm
20:15 10.6 °F /  -11.9 °C 4.3 °F /  -15.4 °C 1038.8 in /  35173.8 hPa NE 1.6 mph /  2.6 km/h 3.2 mph /  5.1 km/h 65 % 0.0 in /  0 mm
20:20 10.6 °F /  -11.9 °C 4.3 °F /  -15.4 °C 1038.8 in /  35173.8 hPa Calm   1.6 mph /  2.6 km/h 65 % 0.0 in /  0 mm
20:25 10.5 °F /  -11.9 °C 4.4 °F /  -15.3 °C 1038.8 in /  35173.8 hPa Calm     66 % 0.0 in /  0 mm
20:30 10.4 °F /  -12 °C 4.3 °F /  -15.4 °C 1038.8 in /  35173.8 hPa NE 3.7 mph /  6 km/h 3.7 mph /  6 km/h 66 % 0.0 in /  0 mm
20:35 10.2 °F /  -12.1 °C 4.2 °F /  -15.4 °C 1038.8 in /  35173.8 hPa NE 1.6 mph /  2.6 km/h 3.2 mph /  5.1 km/h 66 % 0.0 in /  0 mm
20:40 10.1 °F /  -12.2 °C 4.2 °F /  -15.4 °C 1038.8 in /  35173.8 hPa NE 1.9 mph /  3.1 km/h 2.6 mph /  4.2 km/h 67 % 0.0 in /  0 mm
20:45 10.0 °F /  -12.2 °C 4.2 °F /  -15.4 °C 1038.8 in /  35173.8 hPa NE 3.9 mph /  6.3 km/h 3.9 mph /  6.3 km/h 67 % 0.0 in /  0 mm
20:50 9.8 °F /  -12.3 °C 4.2 °F /  -15.4 °C 1038.8 in /  35173.8 hPa NE 3.7 mph /  6 km/h 3.7 mph /  6 km/h 68 % 0.0 in /  0 mm
20:55 9.7 °F /  -12.4 °C 4.1 °F /  -15.5 °C 1038.8 in /  35173.8 hPa NE 1.9 mph /  3.1 km/h   68 % 0.0 in /  0 mm
21:00 9.6 °F /  -12.4 °C 4.0 °F /  -15.6 °C 1038.8 in /  35173.8 hPa NE 1.9 mph /  3.1 km/h 1.9 mph /  3.1 km/h 68 % 0.0 in /  0 mm
21:05 9.4 °F /  -12.6 °C 3.8 °F /  -15.7 °C 1038.8 in /  35173.8 hPa NE 2.6 mph /  4.2 km/h 2.6 mph /  4.2 km/h 68 % 0.0 in /  0 mm
21:10 9.4 °F /  -12.6 °C 3.8 °F /  -15.7 °C 1038.8 in /  35173.8 hPa NE 3.9 mph /  6.3 km/h 3.9 mph /  6.3 km/h 68 % 0.0 in /  0 mm
21:15 9.3 °F /  -12.6 °C 3.7 °F /  -15.7 °C 1038.8 in /  35173.8 hPa NE 5.6 mph /  9 km/h 5.6 mph /  9 km/h 68 % 0.0 in /  0 mm
21:20 9.2 °F /  -12.7 °C 3.6 °F /  -15.8 °C 1038.8 in /  35173.8 hPa NE 5.6 mph /  9 km/h 5.6 mph /  9 km/h 68 % 0.0 in /  0 mm
21:25 9.2 °F /  -12.7 °C 3.8 °F /  -15.7 °C 1038.8 in /  35173.8 hPa NE 3.9 mph /  6.3 km/h 3.9 mph /  6.3 km/h 69 % 0.0 in /  0 mm
21:30 9.1 °F /  -12.7 °C 3.7 °F /  -15.7 °C 1038.8 in /  35173.8 hPa NE 3.7 mph /  6 km/h 3.7 mph /  6 km/h 69 % 0.0 in /  0 mm
21:35 9.1 °F /  -12.7 °C 3.7 °F /  -15.7 °C 1038.8 in /  35173.8 hPa NE 4.2 mph /  6.8 km/h 4.2 mph /  6.8 km/h 69 % 0.0 in /  0 mm
21:40 9.1 °F /  -12.7 °C 3.7 °F /  -15.7 °C 1038.8 in /  35173.8 hPa NE 3.2 mph /  5.1 km/h 4.8 mph /  7.7 km/h 69 % 0.0 in /  0 mm
21:45 9.1 °F /  -12.7 °C 3.7 °F /  -15.7 °C 1038.8 in /  35173.8 hPa NE 3.7 mph /  6 km/h 3.7 mph /  6 km/h 69 % 0.0 in /  0 mm
21:50 9.0 °F /  -12.8 °C 3.6 °F /  -15.8 °C 1038.8 in /  35173.8 hPa NE 3.7 mph /  6 km/h 3.9 mph /  6.3 km/h 69 % 0.0 in /  0 mm
21:55 9.0 °F /  -12.8 °C 3.6 °F /  -15.8 °C 1038.8 in /  35173.8 hPa NE 4.2 mph /  6.8 km/h 4.2 mph /  6.8 km/h 69 % 0.0 in /  0 mm
22:00 8.8 °F /  -12.9 °C 3.4 °F /  -15.9 °C 1038.8 in /  35173.8 hPa NE 3.2 mph /  5.1 km/h 4.8 mph /  7.7 km/h 69 % 0.0 in /  0 mm
22:05 8.7 °F /  -12.9 °C 3.3 °F /  -15.9 °C 1038.8 in /  35173.8 hPa NE 1.9 mph /  3.1 km/h 1.9 mph /  3.1 km/h 69 % 0.0 in /  0 mm
22:10 8.7 °F /  -12.9 °C 3.6 °F /  -15.8 °C 1038.8 in /  35173.8 hPa NE 1.9 mph /  3.1 km/h   70 % 0.0 in /  0 mm
22:15 8.6 °F /  -13 °C 3.2 °F /  -16 °C 1038.8 in /  35173.8 hPa NE 1.9 mph /  3.1 km/h   69 % 0.0 in /  0 mm
22:20 8.6 °F /  -13 °C 3.2 °F /  -16 °C 1038.8 in /  35173.8 hPa NE 3.7 mph /  6 km/h 3.7 mph /  6 km/h 69 % 0.0 in /  0 mm
22:25 8.5 °F /  -13.1 °C 3.1 °F /  -16.1 °C 1038.8 in /  35173.8 hPa NE 1.9 mph /  3.1 km/h   69 % 0.0 in /  0 mm
22:30 8.5 °F /  -13.1 °C 3.1 °F /  -16.1 °C 1038.8 in /  35173.8 hPa NE 3.2 mph /  5.1 km/h 3.2 mph /  5.1 km/h 69 % 0.0 in /  0 mm
22:35 8.5 °F /  -13.1 °C 3.1 °F /  -16.1 °C 1038.8 in /  35173.8 hPa NE 5.6 mph /  9 km/h 5.6 mph /  9 km/h 69 % 0.0 in /  0 mm
22:40 8.4 °F /  -13.1 °C 3.1 °F /  -16.1 °C 1038.8 in /  35173.8 hPa NE 5.6 mph /  9 km/h 5.6 mph /  9 km/h 69 % 0.0 in /  0 mm
22:45 8.4 °F /  -13.1 °C 3.1 °F /  -16.1 °C 1038.8 in /  35173.8 hPa NE 3.7 mph /  6 km/h 3.7 mph /  6 km/h 69 % 0.0 in /  0 mm
22:50 8.4 °F /  -13.1 °C 3.1 °F /  -16.1 °C 1038.8 in /  35173.8 hPa NE 3.9 mph /  6.3 km/h 3.9 mph /  6.3 km/h 69 % 0.0 in /  0 mm
22:55 8.3 °F /  -13.2 °C 2.9 °F /  -16.2 °C 1038.8 in /  35173.8 hPa NE 4.7 mph /  7.6 km/h 4.7 mph /  7.6 km/h 69 % 0.0 in /  0 mm
23:00 8.2 °F /  -13.2 °C 2.8 °F /  -16.2 °C 1038.8 in /  35173.8 hPa NE 3.7 mph /  6 km/h 3.7 mph /  6 km/h 69 % 0.0 in /  0 mm
23:05 8.2 °F /  -13.2 °C 2.8 °F /  -16.2 °C 1038.8 in /  35173.8 hPa NE 3.7 mph /  6 km/h 3.7 mph /  6 km/h 69 % 0.0 in /  0 mm
23:10 8.1 °F /  -13.3 °C 2.8 °F /  -16.2 °C 1038.8 in /  35173.8 hPa NE 3.7 mph /  6 km/h 3.7 mph /  6 km/h 69 % 0.0 in /  0 mm
23:15 8.1 °F /  -13.3 °C 2.8 °F /  -16.2 °C 1038.8 in /  35173.8 hPa NE 3.7 mph /  6 km/h 3.9 mph /  6.3 km/h 69 % 0.0 in /  0 mm
23:20 8.0 °F /  -13.3 °C 2.7 °F /  -16.3 °C 1038.8 in /  35173.8 hPa NE 3.7 mph /  6 km/h 3.7 mph /  6 km/h 69 % 0.0 in /  0 mm
23:25 8.0 °F /  -13.3 °C 2.7 °F /  -16.3 °C 1038.8 in /  35173.8 hPa NE 3.7 mph /  6 km/h 3.7 mph /  6 km/h 69 % 0.0 in /  0 mm
23:30 7.9 °F /  -13.4 °C 2.8 °F /  -16.2 °C 1038.8 in /  35173.8 hPa NE 2.6 mph /  4.2 km/h 2.6 mph /  4.2 km/h 70 % 0.0 in /  0 mm
23:35 7.8 °F /  -13.4 °C 2.7 °F /  -16.3 °C 1038.8 in /  35173.8 hPa NE 3.7 mph /  6 km/h 3.7 mph /  6 km/h 70 % 0.0 in /  0 mm
23:40 7.7 °F /  -13.5 °C 2.6 °F /  -16.3 °C 1038.8 in /  35173.8 hPa NE 3.7 mph /  6 km/h 3.7 mph /  6 km/h 70 % 0.0 in /  0 mm
23:45 7.6 °F /  -13.6 °C 2.5 °F /  -16.4 °C 1038.8 in /  35173.8 hPa NE 1.9 mph /  3.1 km/h   70 % 0.0 in /  0 mm
23:50 7.6 °F /  -13.6 °C 2.5 °F /  -16.4 °C 1038.8 in /  35173.8 hPa NE 1.9 mph /  3.1 km/h 1.9 mph /  3.1 km/h 70 % 0.0 in /  0 mm
23:55 7.5 °F /  -13.6 °C 2.4 °F /  -16.4 °C 1038.8 in /  35173.8 hPa NE 3.7 mph /  6 km/h   70 % 0.0 in /  0 mm
Meteo Sesrovires
Elogis d' Weather Underground - 4 mb

Guio original per  Jim McMurry - jmcmurry@mwt.net Adaptat per a la plantilla per  Wim van der Kuil - Leuven-Template.eu

Trobareu la nostra informacio del temps tambe a:

Weather Underground

AWEKAS